Jfe Mercury — JD2719 — position and weather

sailwx.info

Track history (hours):
 
Tides and Currents Weather Stations Pressure Air Temp Water Temp Dewpoint Dewpoint Depression Visibility Wind Speed Wind Dir Waves Ship Positions

Jfe Mercury

Last reported at 2017-Oct-18 01:53 UTC. Time now 2017-Oct-18 02:26 UTC.
Position N 34°35' E 135°18'.

Length 152 m; draft 4.1 m.

Type: Cargo ship. MMSI: 431000822.

Date/timePositionNaut miles runAvg speedWind from/ knotsBaromVisibWave heightAir tempDewpointWater temp
2017-Oct-18 01:53N 34°35' E 135°18'0 0.0
2017-Oct-18 01:23N 34°35' E 135°18'0 0.0
2017-Oct-18 00:59N 34°35' E 135°18'0 0.0
2017-Oct-18 00:29N 34°35' E 135°18'0 0.0
2017-Oct-17 23:59N 34°35' E 135°18'0 0.0
2017-Oct-17 23:23N 34°35' E 135°18'0 0.0
2017-Oct-17 22:47N 34°35' E 135°18'0 0.0
2017-Oct-17 22:29N 34°35' E 135°18'0 0.0
2017-Oct-17 21:59N 34°35' E 135°18'0 0.0
2017-Oct-17 21:23N 34°35' E 135°18'0 0.0
2017-Oct-17 20:59N 34°35' E 135°18'0 0.0
2017-Oct-17 20:29N 34°35' E 135°18'0 0.0
2017-Oct-17 19:54N 34°35' E 135°18'3 7.7
2017-Oct-17 19:30N 34°35' E 135°14'611.1
2017-Oct-17 19:00N 34°34' E 135°07'612.1
2017-Oct-17 18:30N 34°37' E 135°01'  
2017-Oct-08 10:39N 34°34' E 134°50'211.9
2017-Oct-08 10:30N 34°35' E 134°52'611.7
2017-Oct-08 09:59N 34°38' E 134°59'4 9.3
2017-Oct-08 09:30N 34°36' E 135°04'510.4
2017-Oct-08 09:00N 34°36' E 135°10'510.2
2017-Oct-08 08:30N 34°36' E 135°16'510.2
2017-Oct-08 08:00N 34°36' E 135°22'3 0.9
2017-Oct-08 05:00N 34°35' E 135°26'2 4.8
2017-Oct-08 04:30N 34°36' E 135°23'5 9.7
2017-Oct-08 04:00N 34°33' E 135°19'510.5
2017-Oct-08 03:30N 34°30' E 135°14'510.5
2017-Oct-08 02:59N 34°26' E 135°09'510.2
2017-Oct-08 02:29N 34°22' E 135°05'  
Track history (hours):
 
Tides and Currents Weather Stations Pressure Air Temp Water Temp Dewpoint Dewpoint Depression Visibility Wind Speed Wind Dir Waves Ship Positions

Jfe Mercury

Last reported at 2017-Oct-18 01:53 UTC. Time now 2017-Oct-18 02:26 UTC.
Position N 34°35' E 135°18'.

Length 152 m; draft 4.1 m.

Type: Cargo ship. MMSI: 431000822.

Date/timePositionNaut miles runAvg speedWind from/ knotsBaromVisibWave heightAir tempDewpointWater temp
2017-Oct-18 01:53N 34°35' E 135°18'0 0.0
2017-Oct-18 01:23N 34°35' E 135°18'0 0.0
2017-Oct-18 00:59N 34°35' E 135°18'0 0.0
2017-Oct-18 00:29N 34°35' E 135°18'0 0.0
2017-Oct-17 23:59N 34°35' E 135°18'0 0.0
2017-Oct-17 23:23N 34°35' E 135°18'0 0.0
2017-Oct-17 22:47N 34°35' E 135°18'0 0.0
2017-Oct-17 22:29N 34°35' E 135°18'0 0.0
2017-Oct-17 21:59N 34°35' E 135°18'0 0.0
2017-Oct-17 21:23N 34°35' E 135°18'0 0.0
2017-Oct-17 20:59N 34°35' E 135°18'0 0.0
2017-Oct-17 20:29N 34°35' E 135°18'0 0.0
2017-Oct-17 19:54N 34°35' E 135°18'3 7.7
2017-Oct-17 19:30N 34°35' E 135°14'611.1
2017-Oct-17 19:00N 34°34' E 135°07'612.1
2017-Oct-17 18:30N 34°37' E 135°01'  
2017-Oct-08 10:39N 34°34' E 134°50'211.9
2017-Oct-08 10:30N 34°35' E 134°52'611.7
2017-Oct-08 09:59N 34°38' E 134°59'4 9.3
2017-Oct-08 09:30N 34°36' E 135°04'510.4
2017-Oct-08 09:00N 34°36' E 135°10'510.2
2017-Oct-08 08:30N 34°36' E 135°16'510.2
2017-Oct-08 08:00N 34°36' E 135°22'3 0.9
2017-Oct-08 05:00N 34°35' E 135°26'2 4.8
2017-Oct-08 04:30N 34°36' E 135°23'5 9.7
2017-Oct-08 04:00N 34°33' E 135°19'510.5
2017-Oct-08 03:30N 34°30' E 135°14'510.5
2017-Oct-08 02:59N 34°26' E 135°09'510.2
2017-Oct-08 02:29N 34°22' E 135°05'  

Dump ship's entire track history